createdAt,value
2017-12-03T00:00:13.582Z,15.18
2017-12-03T00:02:41.152Z,15.27
2017-12-03T00:05:08.689Z,14.60
2017-12-03T00:07:36.253Z,14.30
2017-12-03T00:10:03.790Z,16.87
2017-12-03T00:12:32.124Z,15.48
2017-12-03T00:14:59.653Z,12.77
2017-12-03T00:17:27.210Z,11.32
2017-12-03T00:19:54.752Z,17.23
2017-12-03T00:22:22.307Z,13.62
2017-12-03T00:24:49.862Z,15.68
2017-12-03T00:27:18.194Z,19.08
2017-12-03T00:29:45.740Z,17.73
2017-12-03T00:32:13.307Z,17.60
2017-12-03T00:34:40.838Z,17.90
2017-12-03T00:37:08.538Z,13.60
2017-12-03T00:39:36.334Z,14.55
2017-12-03T00:42:04.674Z,13.15
2017-12-03T00:44:32.220Z,16.08
2017-12-03T00:46:59.812Z,13.15
2017-12-03T00:49:27.462Z,14.00
2017-12-03T00:51:55.024Z,14.43
2017-12-03T00:54:22.621Z,13.30
2017-12-03T00:56:50.956Z,13.43
2017-12-03T00:59:18.494Z,13.33
2017-12-03T01:01:46.058Z,13.15
2017-12-03T01:04:13.591Z,15.30
2017-12-03T01:06:41.919Z,11.77
2017-12-03T01:09:09.460Z,11.60
2017-12-03T01:11:37.022Z,14.00
2017-12-03T01:14:04.566Z,12.40
2017-12-03T01:16:32.358Z,14.00
2017-12-03T01:18:59.908Z,15.75
2017-12-03T01:21:27.469Z,13.27
2017-12-03T01:23:55.011Z,14.10
2017-12-03T01:26:22.574Z,14.32
2017-12-03T01:28:50.115Z,12.40
2017-12-03T01:31:17.674Z,15.13
2017-12-03T01:33:45.980Z,12.02
2017-12-03T01:36:13.544Z,13.32
2017-12-03T01:38:41.280Z,14.07
2017-12-03T01:41:08.870Z,14.95
2017-12-03T01:43:36.429Z,12.13
2017-12-03T01:46:03.962Z,14.40
2017-12-03T01:48:31.522Z,17.00
2017-12-03T01:50:59.066Z,12.93
2017-12-03T01:53:27.582Z,12.82
2017-12-03T01:55:55.118Z,11.60
2017-12-03T01:58:23.442Z,17.77
2017-12-03T02:00:50.981Z,11.30
2017-12-03T02:03:18.560Z,15.60
2017-12-03T02:05:46.107Z,14.87
2017-12-03T02:08:13.671Z,16.33
2017-12-03T02:10:41.206Z,15.17
2017-12-03T02:13:08.762Z,10.77
2017-12-03T02:15:37.050Z,11.33
2017-12-03T02:18:04.619Z,13.65
2017-12-03T02:20:32.163Z,13.80
2017-12-03T02:22:59.731Z,17.05
2017-12-03T02:25:27.271Z,12.55
2017-12-03T02:27:54.839Z,13.15
2017-12-03T02:30:22.374Z,11.30
2017-12-03T02:32:50.718Z,14.63
2017-12-03T02:35:18.245Z,16.10
2017-12-03T02:37:45.808Z,10.80
2017-12-03T02:40:13.344Z,13.37
2017-12-03T02:42:41.666Z,17.35
2017-12-03T02:45:09.974Z,14.40
2017-12-03T02:47:37.546Z,13.82
2017-12-03T02:50:05.074Z,15.27
2017-12-03T02:52:32.615Z,12.10
2017-12-03T02:55:00.186Z,14.90
2017-12-03T02:57:27.717Z,13.98
2017-12-03T02:59:55.275Z,11.18
2017-12-03T03:02:22.816Z,10.75
2017-12-03T03:04:51.148Z,12.50
2017-12-03T03:07:18.683Z,10.65
2017-12-03T03:09:46.248Z,16.70
2017-12-03T03:12:13.783Z,12.15
2017-12-03T03:14:41.356Z,15.30
2017-12-03T03:17:08.895Z,14.65
2017-12-03T03:19:37.232Z,11.85
2017-12-03T03:22:04.767Z,14.30
2017-12-03T03:24:32.327Z,11.40
2017-12-03T03:26:59.866Z,15.98
2017-12-03T03:29:27.426Z,13.40
2017-12-03T03:31:54.963Z,17.90
2017-12-03T03:34:23.290Z,11.50
2017-12-03T03:36:50.823Z,16.58
2017-12-03T03:39:18.435Z,13.32
2017-12-03T03:41:45.984Z,14.07
2017-12-03T03:44:13.554Z,14.13
2017-12-03T03:46:41.098Z,14.02
2017-12-03T03:49:08.658Z,15.45
2017-12-03T03:51:36.199Z,15.77
2017-12-03T03:54:03.734Z,14.15
2017-12-03T03:56:31.297Z,14.25
2017-12-03T03:58:58.851Z,13.38
2017-12-03T04:01:26.446Z,14.75
2017-12-03T04:03:53.982Z,16.23
2017-12-03T04:06:21.546Z,12.45
2017-12-03T04:08:49.079Z,13.38
2017-12-03T04:11:17.403Z,13.60
2017-12-03T04:13:50.875Z,14.27
2017-12-03T04:16:18.444Z,16.45
2017-12-03T04:18:45.986Z,16.52
2017-12-03T04:21:14.311Z,14.45
2017-12-03T04:23:41.843Z,15.68
2017-12-03T04:26:09.425Z,12.48
2017-12-03T04:28:36.962Z,14.18
2017-12-03T04:31:04.527Z,15.52
2017-12-03T04:33:32.066Z,11.40
2017-12-03T04:35:59.714Z,13.15
2017-12-03T04:38:28.027Z,13.52
2017-12-03T04:40:55.592Z,13.73
2017-12-03T04:43:23.146Z,12.82
2017-12-03T04:45:50.717Z,15.07
2017-12-03T04:48:18.250Z,15.02
2017-12-03T04:50:45.823Z,14.60
2017-12-03T04:53:13.358Z,12.02
2017-12-03T04:55:41.690Z,12.93
2017-12-03T04:58:09.278Z,11.52
2017-12-03T05:00:36.825Z,14.00
2017-12-03T05:03:04.386Z,13.45
2017-12-03T05:05:31.931Z,14.30
2017-12-03T05:07:59.494Z,15.02
2017-12-03T05:10:27.028Z,15.93
2017-12-03T05:12:54.594Z,10.77
2017-12-03T05:15:22.138Z,14.63
2017-12-03T05:17:49.694Z,14.23
2017-12-03T05:20:17.239Z,12.30
2017-12-03T05:22:44.794Z,14.80
2017-12-03T05:25:13.097Z,14.07
2017-12-03T05:27:40.659Z,12.87
2017-12-03T05:30:08.195Z,12.27
2017-12-03T05:32:36.513Z,15.30
2017-12-03T05:35:04.046Z,14.13
2017-12-03T05:37:31.614Z,11.75
2017-12-03T05:39:59.146Z,16.30
2017-12-03T05:42:27.479Z,14.45
2017-12-03T05:44:55.797Z,12.70
2017-12-03T05:47:24.126Z,13.30
2017-12-03T05:49:51.663Z,10.75
2017-12-03T05:52:19.227Z,14.68
2017-12-03T05:54:46.760Z,14.27
2017-12-03T05:57:15.090Z,22.33
2017-12-03T05:59:42.627Z,15.48
2017-12-03T06:02:10.191Z,21.33
2017-12-03T06:04:37.734Z,21.98
2017-12-03T06:07:05.274Z,19.37
2017-12-03T06:09:33.602Z,19.50
2017-12-03T06:12:01.143Z,20.53
2017-12-03T06:14:28.715Z,15.70
2017-12-03T06:16:56.258Z,19.20
2017-12-03T06:19:23.822Z,19.90
2017-12-03T06:21:51.362Z,17.17
2017-12-03T06:24:18.925Z,14.52
2017-12-03T06:26:46.459Z,20.88
2017-12-03T06:29:14.797Z,20.17
2017-12-03T06:51:15.782Z,17.52
2017-12-03T06:53:43.354Z,15.25
2017-12-03T06:56:10.901Z,17.45
2017-12-03T06:58:38.477Z,20.50
2017-12-03T07:01:06.026Z,20.05
2017-12-03T07:03:33.607Z,17.52
2017-12-03T07:06:01.147Z,14.35
2017-12-03T07:08:28.707Z,16.00
2017-12-03T07:10:56.263Z,15.53
2017-12-03T07:13:23.824Z,17.90
2017-12-03T07:15:51.372Z,16.10
2017-12-03T07:18:18.938Z,16.83
2017-12-03T07:20:46.477Z,16.00
2017-12-03T07:23:14.039Z,22.07
2017-12-03T07:25:41.585Z,14.33
2017-12-03T07:28:09.145Z,16.50
2017-12-03T07:30:58.339Z,17.05
2017-12-03T07:33:25.918Z,16.95
2017-12-03T07:35:53.462Z,19.33
2017-12-03T07:38:21.028Z,18.87
2017-12-03T07:40:48.575Z,22.35
2017-12-03T07:43:16.134Z,15.45
2017-12-03T07:45:43.676Z,17.67
2017-12-03T07:48:11.233Z,18.40
2017-12-03T07:50:38.779Z,17.52
2017-12-03T07:53:06.358Z,17.25
2017-12-03T07:55:33.898Z,20.42
2017-12-03T07:58:01.472Z,17.02
2017-12-03T08:00:29.018Z,18.90
2017-12-03T08:02:56.586Z,17.12
2017-12-03T08:05:24.122Z,19.37
2017-12-03T08:07:52.467Z,23.75
2017-12-03T08:10:20.018Z,17.55
2017-12-03T08:12:47.581Z,20.10
2017-12-03T08:15:15.121Z,18.42
2017-12-03T08:17:42.694Z,20.45
2017-12-03T08:20:10.235Z,16.67
2017-12-03T08:22:37.915Z,19.20
2017-12-03T08:25:05.479Z,20.55
2017-12-03T08:27:33.014Z,16.98
2017-12-03T08:30:00.579Z,18.37
2017-12-03T08:32:28.118Z,21.62
2017-12-03T08:34:55.689Z,22.42
2017-12-03T08:37:23.230Z,23.85
2017-12-03T08:39:51.563Z,22.05
2017-12-03T08:42:19.109Z,26.33
2017-12-03T08:44:46.683Z,33.97
2017-12-03T08:47:14.240Z,24.63
2017-12-03T08:49:41.803Z,20.27
2017-12-03T08:52:09.346Z,24.58
2017-12-03T08:54:36.910Z,24.25
2017-12-03T08:57:04.471Z,23.55
2017-12-03T08:59:32.037Z,22.10
2017-12-03T09:01:59.579Z,20.27
2017-12-03T09:04:27.145Z,18.45
2017-12-03T09:06:54.671Z,22.77
2017-12-03T09:09:23.000Z,21.45
2017-12-03T09:11:50.610Z,25.43
2017-12-03T09:14:18.922Z,23.00
2017-12-03T09:16:46.463Z,18.27
2017-12-03T09:19:14.026Z,21.77
2017-12-03T09:21:41.606Z,21.60
2017-12-03T09:24:09.169Z,21.77
2017-12-03T09:26:36.761Z,15.93
2017-12-03T09:29:04.338Z,18.15
2017-12-03T09:31:32.733Z,19.83
2017-12-03T09:34:00.296Z,20.02
2017-12-03T09:36:27.835Z,18.70
2017-12-03T09:38:56.175Z,20.17
2017-12-03T09:41:23.706Z,18.20
2017-12-03T09:43:51.285Z,20.42
2017-12-03T09:46:18.819Z,18.20
2017-12-03T09:48:46.384Z,23.33
2017-12-03T09:51:13.940Z,20.02
2017-12-03T09:53:41.518Z,19.00
2017-12-03T09:56:09.057Z,25.08
2017-12-03T09:58:36.624Z,20.55
2017-12-03T10:01:04.166Z,27.83
2017-12-03T10:03:32.485Z,24.00
2017-12-03T10:06:00.032Z,24.97
2017-12-03T10:08:27.607Z,21.10
2017-12-03T10:10:55.162Z,19.13
2017-12-03T10:13:23.497Z,20.88
2017-12-03T10:15:51.809Z,24.08
2017-12-03T10:18:19.379Z,25.60
2017-12-03T10:23:40.067Z,26.25
2017-12-03T10:26:07.612Z,22.02
2017-12-03T10:28:35.947Z,29.83
2017-12-03T10:31:03.498Z,25.48
2017-12-03T10:33:31.830Z,24.58
2017-12-03T10:36:00.146Z,22.65
2017-12-03T10:38:27.714Z,22.70
2017-12-03T10:40:55.254Z,21.90
2017-12-03T10:43:22.826Z,24.58
2017-12-03T10:45:50.367Z,23.05
2017-12-03T10:48:17.926Z,26.57
2017-12-03T10:50:45.479Z,24.37
2017-12-03T10:53:13.027Z,24.77
2017-12-03T10:55:41.354Z,31.10
2017-12-03T10:58:08.895Z,24.07
2017-12-03T11:00:36.469Z,25.53
2017-12-03T11:03:04.007Z,24.57
2017-12-03T11:05:31.578Z,24.27
2017-12-03T11:07:59.118Z,22.67
2017-12-03T11:10:26.695Z,24.73
2017-12-03T11:12:54.251Z,23.83
2017-12-03T11:15:21.818Z,29.60
2017-12-03T11:17:49.364Z,29.27
2017-12-03T11:20:16.938Z,28.08
2017-12-03T11:22:44.482Z,23.42
2017-12-03T11:25:12.055Z,22.77
2017-12-03T11:27:39.606Z,28.10
2017-12-03T11:30:07.172Z,24.00
2017-12-03T11:32:34.711Z,26.67
2017-12-03T11:35:02.276Z,33.23
2017-12-03T11:37:29.816Z,25.17
2017-12-03T11:39:58.193Z,25.92
2017-12-03T11:42:25.711Z,25.77
2017-12-03T11:44:53.271Z,27.25
2017-12-03T11:47:20.818Z,24.08
2017-12-03T11:49:48.381Z,25.00
2017-12-03T11:52:16.693Z,26.37
2017-12-03T11:54:44.254Z,22.40
2017-12-03T11:57:11.794Z,25.87
2017-12-03T11:59:39.354Z,27.60
2017-12-03T12:02:06.892Z,25.40
2017-12-03T12:04:34.454Z,23.75
2017-12-03T12:07:01.996Z,24.05
2017-12-03T12:09:29.558Z,26.07
2017-12-03T12:11:57.099Z,24.50
2017-12-03T12:14:25.427Z,21.50
2017-12-03T12:16:52.977Z,21.53
2017-12-03T12:19:20.535Z,26.07
2017-12-03T12:21:48.066Z,21.57
2017-12-03T12:24:15.633Z,24.52
2017-12-03T12:26:43.173Z,25.50
2017-12-03T12:29:11.508Z,21.47
2017-12-03T12:31:39.068Z,25.70
2017-12-03T12:34:06.636Z,25.88
2017-12-03T12:36:34.174Z,27.53
2017-12-03T12:39:01.743Z,21.00
2017-12-03T12:41:29.296Z,24.58
2017-12-03T12:43:56.863Z,27.42
2017-12-03T12:46:24.412Z,28.98
2017-12-03T12:48:51.974Z,24.67
2017-12-03T12:51:19.520Z,29.67
2017-12-03T12:53:47.063Z,22.60
2017-12-03T12:56:14.630Z,23.27
2017-12-03T12:58:42.170Z,23.23
2017-12-03T13:01:09.742Z,26.17
2017-12-03T13:03:37.286Z,24.67
2017-12-03T13:06:05.618Z,29.33
2017-12-03T13:08:33.164Z,23.20
2017-12-03T13:11:00.733Z,23.02
2017-12-03T13:13:28.274Z,23.80
2017-12-03T13:15:55.834Z,25.75
2017-12-03T13:18:23.370Z,26.25
2017-12-03T13:20:50.951Z,24.58
2017-12-03T13:23:18.486Z,25.58
2017-12-03T13:25:46.059Z,29.10
2017-12-03T13:28:13.598Z,29.85
2017-12-03T13:30:41.933Z,32.43
2017-12-03T13:33:09.487Z,36.97
2017-12-03T13:35:37.052Z,29.92
2017-12-03T13:38:04.596Z,27.75
2017-12-03T13:40:32.163Z,32.88
2017-12-03T13:42:59.708Z,33.75
2017-12-03T13:45:27.277Z,34.58
2017-12-03T13:47:54.819Z,31.42
2017-12-03T13:50:22.386Z,31.95
2017-12-03T13:52:49.926Z,33.28
2017-12-03T13:55:17.500Z,35.63
2017-12-03T13:57:45.042Z,35.95
2017-12-03T14:00:13.374Z,37.17
2017-12-03T14:02:40.921Z,31.60
2017-12-03T14:05:08.495Z,37.10
2017-12-03T14:07:36.048Z,38.63
2017-12-03T14:10:03.614Z,36.60
2017-12-03T14:12:31.164Z,33.80
2017-12-03T14:14:58.743Z,32.35
2017-12-03T14:17:26.290Z,34.30
2017-12-03T14:19:53.859Z,35.97
2017-12-03T14:22:21.401Z,33.22
2017-12-03T14:24:48.975Z,30.45
2017-12-03T14:27:16.527Z,36.38
2017-12-03T14:29:44.093Z,42.20
2017-12-03T14:32:11.646Z,37.63
2017-12-03T14:34:39.219Z,27.05
2017-12-03T14:37:06.751Z,29.50
2017-12-03T14:39:34.315Z,35.72
2017-12-03T14:42:01.862Z,32.30
2017-12-03T14:44:29.434Z,39.03
2017-12-03T14:46:56.980Z,32.97
2017-12-03T14:49:24.555Z,30.77
2017-12-03T14:51:52.091Z,36.63
2017-12-03T14:54:19.670Z,34.75
2017-12-03T14:56:47.216Z,35.90
2017-12-03T14:59:14.760Z,38.83
2017-12-03T15:01:42.335Z,36.60
2017-12-03T15:04:09.885Z,33.90
2017-12-03T15:06:37.451Z,33.55
2017-12-03T15:09:04.990Z,33.08
2017-12-03T15:11:33.352Z,29.75
2017-12-03T15:14:00.890Z,33.67
2017-12-03T15:16:28.463Z,39.47
2017-12-03T15:18:56.008Z,30.62
2017-12-03T15:21:23.582Z,37.03
2017-12-03T15:23:51.132Z,33.95
2017-12-03T15:26:18.692Z,30.30
2017-12-03T15:28:46.230Z,44.50
2017-12-03T15:31:13.801Z,33.50
2017-12-03T15:33:41.333Z,39.63
2017-12-03T15:36:08.906Z,34.63
2017-12-03T15:38:36.467Z,41.08
2017-12-03T15:41:04.035Z,40.90
2017-12-03T15:43:31.577Z,43.65
2017-12-03T15:45:59.136Z,39.80
2017-12-03T15:48:26.681Z,35.78
2017-12-03T15:50:54.248Z,45.55
2017-12-03T15:53:21.783Z,44.05
2017-12-03T15:55:50.109Z,42.97
2017-12-03T15:58:17.683Z,41.58
2017-12-03T16:00:45.242Z,37.20
2017-12-03T16:03:12.783Z,42.80
2017-12-03T16:05:40.348Z,42.88
2017-12-03T16:08:07.894Z,38.43
2017-12-03T16:10:35.551Z,42.67
2017-12-03T16:13:03.097Z,44.10
2017-12-03T16:15:30.666Z,38.42
2017-12-03T16:17:58.207Z,38.50
2017-12-03T16:20:26.546Z,38.75
2017-12-03T16:22:54.087Z,42.90
2017-12-03T16:25:21.667Z,40.17
2017-12-03T16:27:49.211Z,46.10
2017-12-03T16:30:16.783Z,39.53
2017-12-03T16:32:44.322Z,39.80
2017-12-03T16:35:11.887Z,44.17
2017-12-03T16:37:39.430Z,42.58
2017-12-03T16:40:07.045Z,43.38
2017-12-03T16:42:34.586Z,45.88
2017-12-03T16:45:02.183Z,51.00
2017-12-03T16:47:30.500Z,44.28
2017-12-03T16:49:58.065Z,41.33
2017-12-03T16:52:25.615Z,46.08
2017-12-03T16:54:53.186Z,42.10
2017-12-03T16:57:20.726Z,49.58
2017-12-03T16:59:48.270Z,49.13
2017-12-03T17:02:16.610Z,47.95
2017-12-03T17:04:44.151Z,42.78
2017-12-03T17:07:11.727Z,43.63
2017-12-03T17:09:39.262Z,49.20
2017-12-03T17:12:06.822Z,40.03
2017-12-03T17:14:34.390Z,48.45
2017-12-03T17:17:01.958Z,45.65
2017-12-03T17:19:29.499Z,44.53
2017-12-03T17:21:57.069Z,44.28
2017-12-03T17:24:24.618Z,42.75
2017-12-03T17:26:52.185Z,43.95
2017-12-03T17:29:19.722Z,46.10
2017-12-03T17:31:47.294Z,39.00
2017-12-03T17:34:14.844Z,46.40
2017-12-03T17:36:42.403Z,54.37
2017-12-03T17:39:09.943Z,45.90
2017-12-03T17:41:38.282Z,37.83
2017-12-03T17:44:05.834Z,46.17
2017-12-03T17:46:33.404Z,52.93
2017-12-03T17:49:00.962Z,47.78
2017-12-03T17:51:28.531Z,47.65
2017-12-03T17:53:56.079Z,44.40
2017-12-03T17:56:23.647Z,43.20
2017-12-03T17:58:51.195Z,38.63
2017-12-03T18:01:18.767Z,50.13
2017-12-03T18:03:46.319Z,48.28
2017-12-03T18:06:13.882Z,43.22
2017-12-03T18:08:41.430Z,46.97
2017-12-03T18:11:09.003Z,53.25
2017-12-03T18:13:36.584Z,47.03
2017-12-03T18:16:04.937Z,47.75
2017-12-03T18:18:32.492Z,41.90
2017-12-03T18:21:00.068Z,51.78
2017-12-03T18:23:27.617Z,53.20
2017-12-03T18:25:55.963Z,48.50
2017-12-03T18:28:23.510Z,42.47
2017-12-03T18:30:51.071Z,46.97
2017-12-03T18:33:18.623Z,43.25
2017-12-03T18:35:46.208Z,42.35
2017-12-03T18:38:13.763Z,44.47
2017-12-03T18:40:41.342Z,46.35
2017-12-03T18:43:08.897Z,44.05
2017-12-03T18:45:36.477Z,46.42
2017-12-03T18:48:04.028Z,41.15
2017-12-03T18:50:31.599Z,39.85
2017-12-03T18:52:59.142Z,41.65
2017-12-03T18:55:27.478Z,48.72
2017-12-03T18:57:55.789Z,43.40
2017-12-03T19:00:23.363Z,42.05
2017-12-03T19:02:50.907Z,45.08
2017-12-03T19:05:18.470Z,43.87
2017-12-03T19:07:46.035Z,45.60
2017-12-03T19:10:13.594Z,42.72
2017-12-03T19:12:41.160Z,43.93
2017-12-03T19:15:09.247Z,42.35
2017-12-03T19:17:37.026Z,47.85
2017-12-03T19:20:04.656Z,42.08
2017-12-03T19:22:32.231Z,49.00
2017-12-03T19:24:59.780Z,46.72
2017-12-03T19:27:27.466Z,47.58
2017-12-03T19:29:55.151Z,45.42
2017-12-03T19:32:23.664Z,45.60
2017-12-03T19:34:51.228Z,43.10
2017-12-03T19:37:18.883Z,39.28
2017-12-03T19:39:46.473Z,37.80
2017-12-03T19:42:14.085Z,38.63
2017-12-03T19:44:41.662Z,41.72
2017-12-03T19:47:09.226Z,42.20
2017-12-03T19:49:36.766Z,41.73
2017-12-03T19:52:05.102Z,39.83
2017-12-03T19:54:32.641Z,40.45
2017-12-03T19:57:00.207Z,40.03
2017-12-03T19:59:27.746Z,41.60
2017-12-03T20:01:55.316Z,45.33
2017-12-03T20:04:22.878Z,39.53
2017-12-03T20:06:50.455Z,46.75
2017-12-03T20:09:18.094Z,49.95
2017-12-03T20:11:45.687Z,44.92
2017-12-03T20:14:13.244Z,42.33
2017-12-03T20:16:40.811Z,41.83
2017-12-03T20:19:08.364Z,46.45
2017-12-03T20:21:35.935Z,40.55
2017-12-03T20:24:03.486Z,44.47
2017-12-03T20:26:31.042Z,44.57
2017-12-03T20:28:58.583Z,47.28
2017-12-03T20:31:26.146Z,46.87
2017-12-03T20:33:53.689Z,53.42
2017-12-03T20:36:21.255Z,50.40
2017-12-03T20:38:48.802Z,52.92
2017-12-03T20:41:16.372Z,41.72
2017-12-03T20:43:43.920Z,50.53
2017-12-03T20:46:11.491Z,45.80
2017-12-03T20:48:39.030Z,54.67
2017-12-03T20:51:06.599Z,45.12
2017-12-03T20:53:34.137Z,52.15
2017-12-03T20:56:02.484Z,53.35
2017-12-03T20:58:30.085Z,46.35
2017-12-03T21:00:57.595Z,52.40
2017-12-03T21:03:25.154Z,44.78
2017-12-03T21:05:52.698Z,51.33
2017-12-03T21:08:20.284Z,53.22
2017-12-03T21:10:47.827Z,54.38
2017-12-03T21:13:15.394Z,43.85
2017-12-03T21:15:42.938Z,51.85
2017-12-03T21:18:10.506Z,50.05
2017-12-03T21:20:38.043Z,50.33
2017-12-03T21:23:05.619Z,50.17
2017-12-03T21:25:33.157Z,44.25
2017-12-03T21:28:00.719Z,50.33
2017-12-03T21:30:28.257Z,56.00
2017-12-03T21:32:56.602Z,52.38
2017-12-03T21:35:24.153Z,51.88
2017-12-03T21:37:51.730Z,48.47
2017-12-03T21:40:19.262Z,53.33
2017-12-03T21:42:46.822Z,56.45
2017-12-03T21:45:14.357Z,49.38
2017-12-03T21:47:41.923Z,56.72
2017-12-03T21:50:09.461Z,52.17
2017-12-03T21:52:37.795Z,56.70
2017-12-03T21:55:05.336Z,58.03
2017-12-03T21:57:32.912Z,52.15
2017-12-03T22:00:08.934Z,50.25
2017-12-03T22:02:36.507Z,50.47
2017-12-03T22:05:04.050Z,46.60
2017-12-03T22:07:31.647Z,51.33
2017-12-03T22:09:59.226Z,50.90
2017-12-03T22:12:26.769Z,53.13
2017-12-03T22:14:54.377Z,52.00
2017-12-03T22:17:22.698Z,54.33
2017-12-03T22:19:50.266Z,52.28
2017-12-03T22:22:18.625Z,52.58
2017-12-03T22:24:46.185Z,52.60
2017-12-03T22:27:13.731Z,61.53
2017-12-03T22:29:41.294Z,53.13
2017-12-03T22:32:08.840Z,60.58
2017-12-03T22:34:36.416Z,45.78
2017-12-03T22:37:03.955Z,59.35
2017-12-03T22:39:32.287Z,56.97
2017-12-03T22:41:59.830Z,60.65
2017-12-03T22:44:27.394Z,54.75
2017-12-03T22:46:54.941Z,57.80
2017-12-03T22:49:22.513Z,60.47
2017-12-03T22:51:50.063Z,50.47
2017-12-03T22:54:17.631Z,56.70
2017-12-03T22:56:45.178Z,52.33
2017-12-03T22:59:12.750Z,54.72
2017-12-03T23:01:40.289Z,55.35
2017-12-03T23:04:07.862Z,48.70
2017-12-03T23:06:35.408Z,55.17
2017-12-03T23:09:02.962Z,45.33
2017-12-03T23:11:30.528Z,52.85
2017-12-03T23:13:58.074Z,43.70
2017-12-03T23:16:25.639Z,45.38
2017-12-03T23:18:53.938Z,50.80
2017-12-03T23:21:21.505Z,54.22
2017-12-03T23:23:49.044Z,46.07
2017-12-03T23:26:16.611Z,51.17
2017-12-03T23:28:44.162Z,46.47
2017-12-03T23:31:11.727Z,58.20
2017-12-03T23:33:39.317Z,52.88
2017-12-03T23:36:06.891Z,46.50
2017-12-03T23:38:34.445Z,58.95
2017-12-03T23:41:02.018Z,54.40
2017-12-03T23:43:29.576Z,62.95
2017-12-03T23:45:57.166Z,65.85
2017-12-03T23:48:25.473Z,56.05
2017-12-03T23:50:53.037Z,59.53
2017-12-03T23:53:20.579Z,57.25
2017-12-03T23:55:48.148Z,63.17
2017-12-03T23:58:15.696Z,55.22
